Terminal Aerodrome Forecast
Issued by NWS

Current Version | Previous Version | Graphics & Text | Print | Product List | Glossary On
Versions: 1 2 3 4 5 6 7 8 9 10 11 12 13 14 15 16 17 18
000
FTUS41 KPBZ 050518 AAA
TAFHLG
TAF AMD
KHLG 050518Z 0505/0524 27008KT 2SM -SHSN BR BKN015
     FM050700 28008KT P6SM BKN025
     FM051500 29008KT P6SM SCT250=

USA.gov is the U.S. government's official web portal to all federal, state and local government web resources and services.